sensor_id;sensor_type;location;lat;lon;timestamp;pressure;altitude;pressure_sealevel;temperature;humidity
7966;BME280;4028;43.272;26.932;2023-01-30T00:01:00;99566.72;;;0.80;100.00
7966;BME280;4028;43.272;26.932;2023-01-30T00:03:26;99561.28;;;0.85;100.00
7966;BME280;4028;43.272;26.932;2023-01-30T00:05:52;99558.25;;;0.75;100.00
7966;BME280;4028;43.272;26.932;2023-01-30T00:08:18;99562.84;;;0.70;100.00
7966;BME280;4028;43.272;26.932;2023-01-30T00:10:44;99557.00;;;0.65;100.00
7966;BME280;4028;43.272;26.932;2023-01-30T00:13:10;99575.09;;;0.68;100.00
7966;BME280;4028;43.272;26.932;2023-01-30T00:15:36;99542.66;;;0.56;100.00
7966;BME280;4028;43.272;26.932;2023-01-30T00:18:02;99567.59;;;0.62;100.00
7966;BME280;4028;43.272;26.932;2023-01-30T00:20:28;99549.06;;;0.49;100.00
7966;BME280;4028;43.272;26.932;2023-01-30T00:22:54;99570.25;;;0.60;100.00
7966;BME280;4028;43.272;26.932;2023-01-30T00:25:19;99573.69;;;0.61;100.00
7966;BME280;4028;43.272;26.932;2023-01-30T00:27:44;99572.78;;;0.62;100.00
7966;BME280;4028;43.272;26.932;2023-01-30T00:30:10;99561.13;;;0.51;100.00
7966;BME280;4028;43.272;26.932;2023-01-30T00:32:36;99566.38;;;0.50;100.00
7966;BME280;4028;43.272;26.932;2023-01-30T00:35:01;99562.16;;;0.47;100.00
7966;BME280;4028;43.272;26.932;2023-01-30T00:37:27;99571.53;;;0.51;100.00
7966;BME280;4028;43.272;26.932;2023-01-30T00:39:52;99572.41;;;0.50;100.00
7966;BME280;4028;43.272;26.932;2023-01-30T00:42:18;99558.13;;;0.59;100.00
7966;BME280;4028;43.272;26.932;2023-01-30T00:45:02;99552.38;;;0.52;100.00
7966;BME280;4028;43.272;26.932;2023-01-30T00:47:47;99535.53;;;0.60;100.00
7966;BME280;4028;43.272;26.932;2023-01-30T00:50:13;99544.69;;;0.49;100.00
7966;BME280;4028;43.272;26.932;2023-01-30T00:52:38;99543.22;;;0.44;100.00
7966;BME280;4028;43.272;26.932;2023-01-30T00:55:04;99544.28;;;0.40;100.00
7966;BME280;4028;43.272;26.932;2023-01-30T00:57:30;99533.81;;;0.41;100.00
7966;BME280;4028;43.272;26.932;2023-01-30T00:59:55;99540.41;;;0.48;100.00
7966;BME280;4028;43.272;26.932;2023-01-30T01:02:21;99533.94;;;0.57;100.00
7966;BME280;4028;43.272;26.932;2023-01-30T01:04:47;99534.00;;;0.56;100.00
7966;BME280;4028;43.272;26.932;2023-01-30T01:07:13;99540.84;;;0.58;100.00
7966;BME280;4028;43.272;26.932;2023-01-30T01:09:39;99535.75;;;0.55;100.00
7966;BME280;4028;43.272;26.932;2023-01-30T01:12:05;99532.03;;;0.42;100.00
7966;BME280;4028;43.272;26.932;2023-01-30T01:14:31;99536.03;;;0.49;100.00
7966;BME280;4028;43.272;26.932;2023-01-30T01:16:56;99522.09;;;0.50;100.00
7966;BME280;4028;43.272;26.932;2023-01-30T01:19:22;99520.09;;;0.38;100.00
7966;BME280;4028;43.272;26.932;2023-01-30T01:21:47;99520.41;;;0.49;100.00
7966;BME280;4028;43.272;26.932;2023-01-30T01:24:14;99508.25;;;0.49;100.00
7966;BME280;4028;43.272;26.932;2023-01-30T01:26:39;99511.69;;;0.50;100.00
7966;BME280;4028;43.272;26.932;2023-01-30T01:29:06;99518.03;;;0.44;100.00
7966;BME280;4028;43.272;26.932;2023-01-30T01:31:33;99513.81;;;0.42;100.00
7966;BME280;4028;43.272;26.932;2023-01-30T01:33:58;99515.44;;;0.44;100.00
7966;BME280;4028;43.272;26.932;2023-01-30T01:36:24;99481.56;;;0.25;100.00
7966;BME280;4028;43.272;26.932;2023-01-30T01:38:49;99500.09;;;0.38;100.00
7966;BME280;4028;43.272;26.932;2023-01-30T01:41:17;99512.41;;;0.35;100.00
7966;BME280;4028;43.272;26.932;2023-01-30T01:44:04;99502.56;;;0.41;100.00
7966;BME280;4028;43.272;26.932;2023-01-30T01:49:02;99498.34;;;0.39;100.00
7966;BME280;4028;43.272;26.932;2023-01-30T01:51:41;99496.78;;;0.35;100.00
7966;BME280;4028;43.272;26.932;2023-01-30T01:57:05;99487.41;;;0.31;100.00
7966;BME280;4028;43.272;26.932;2023-01-30T01:59:51;99493.25;;;0.36;100.00
7966;BME280;4028;43.272;26.932;2023-01-30T02:02:21;99494.75;;;0.41;100.00
7966;BME280;4028;43.272;26.932;2023-01-30T02:04:48;99492.56;;;0.32;100.00
7966;BME280;4028;43.272;26.932;2023-01-30T02:07:53;99486.56;;;0.30;100.00
7966;BME280;4028;43.272;26.932;2023-01-30T02:10:21;99483.97;;;0.30;100.00
7966;BME280;4028;43.272;26.932;2023-01-30T02:12:49;99489.34;;;0.27;100.00
7966;BME280;4028;43.272;26.932;2023-01-30T02:15:16;99470.53;;;0.20;100.00
7966;BME280;4028;43.272;26.932;2023-01-30T02:17:42;99486.94;;;0.41;100.00
7966;BME280;4028;43.272;26.932;2023-01-30T02:28:29;99484.25;;;0.24;100.00
7966;BME280;4028;43.272;26.932;2023-01-30T02:35:59;99486.09;;;0.22;100.00
7966;BME280;4028;43.272;26.932;2023-01-30T02:44:28;99479.97;;;0.23;100.00
7966;BME280;4028;43.272;26.932;2023-01-30T02:46:50;99488.06;;;0.17;100.00
7966;BME280;4028;43.272;26.932;2023-01-30T02:49:31;99482.25;;;0.12;100.00
7966;BME280;4028;43.272;26.932;2023-01-30T02:52:00;99460.91;;;0.04;100.00
7966;BME280;4028;43.272;26.932;2023-01-30T02:54:27;99479.63;;;0.12;100.00
7966;BME280;4028;43.272;26.932;2023-01-30T02:56:56;99479.75;;;0.09;100.00
7966;BME280;4028;43.272;26.932;2023-01-30T02:59:34;99483.28;;;0.08;100.00
7966;BME280;4028;43.272;26.932;2023-01-30T03:05:21;99474.13;;;0.18;100.00
7966;BME280;4028;43.272;26.932;2023-01-30T03:10:57;99478.44;;;0.19;100.00
7966;BME280;4028;43.272;26.932;2023-01-30T03:16:39;99481.88;;;0.19;100.00
7966;BME280;4028;43.272;26.932;2023-01-30T03:19:10;99476.53;;;0.22;100.00
7966;BME280;4028;43.272;26.932;2023-01-30T03:21:43;99469.66;;;0.21;100.00
7966;BME280;4028;43.272;26.932;2023-01-30T03:24:10;99474.56;;;0.09;100.00
7966;BME280;4028;43.272;26.932;2023-01-30T03:26:40;99479.22;;;0.02;100.00
7966;BME280;4028;43.272;26.932;2023-01-30T03:29:07;99468.44;;;0.10;100.00
7966;BME280;4028;43.272;26.932;2023-01-30T03:31:33;99473.63;;;0.10;100.00
7966;BME280;4028;43.272;26.932;2023-01-30T03:33:58;99470.16;;;0.11;100.00
7966;BME280;4028;43.272;26.932;2023-01-30T03:36:23;99471.03;;;0.10;100.00
7966;BME280;4028;43.272;26.932;2023-01-30T03:38:50;99473.38;;;0.16;100.00
7966;BME280;4028;43.272;26.932;2023-01-30T03:41:16;99463.09;;;0.13;100.00
7966;BME280;4028;43.272;26.932;2023-01-30T03:43:42;99470.91;;;0.13;100.00
7966;BME280;4028;43.272;26.932;2023-01-30T03:46:07;99461.25;;;0.15;100.00
7966;BME280;4028;43.272;26.932;2023-01-30T03:48:33;99467.66;;;0.08;100.00
7966;BME280;4028;43.272;26.932;2023-01-30T03:50:58;99461.53;;;0.09;100.00
7966;BME280;4028;43.272;26.932;2023-01-30T03:53:24;99451.84;;;0.12;100.00
7966;BME280;4028;43.272;26.932;2023-01-30T03:55:49;99455.06;;;-0.02;100.00
7966;BME280;4028;43.272;26.932;2023-01-30T03:58:15;99454.75;;;0.06;100.00
7966;BME280;4028;43.272;26.932;2023-01-30T04:00:40;99450.22;;;0.10;100.00
7966;BME280;4028;43.272;26.932;2023-01-30T04:03:05;99447.06;;;0.03;100.00
7966;BME280;4028;43.272;26.932;2023-01-30T04:05:31;99454.09;;;0.01;100.00
7966;BME280;4028;43.272;26.932;2023-01-30T04:07:57;99445.31;;;0.04;100.00
7966;BME280;4028;43.272;26.932;2023-01-30T04:10:24;99446.84;;;0.08;100.00
7966;BME280;4028;43.272;26.932;2023-01-30T04:12:50;99445.22;;;0.05;100.00
7966;BME280;4028;43.272;26.932;2023-01-30T04:15:15;99445.47;;;0.01;100.00
7966;BME280;4028;43.272;26.932;2023-01-30T04:17:42;99439.63;;;-0.05;100.00
7966;BME280;4028;43.272;26.932;2023-01-30T04:20:08;99447.91;;;0.04;100.00
7966;BME280;4028;43.272;26.932;2023-01-30T04:22:33;99449.03;;;-0.02;100.00
7966;BME280;4028;43.272;26.932;2023-01-30T04:24:59;99447.44;;;-0.05;100.00
7966;BME280;4028;43.272;26.932;2023-01-30T04:27:24;99447.56;;;-0.08;100.00
7966;BME280;4028;43.272;26.932;2023-01-30T04:29:50;99441.50;;;-0.08;100.00
7966;BME280;4028;43.272;26.932;2023-01-30T04:32:15;99445.03;;;-0.09;100.00
7966;BME280;4028;43.272;26.932;2023-01-30T04:34:41;99437.88;;;-0.04;100.00
7966;BME280;4028;43.272;26.932;2023-01-30T04:37:08;99444.63;;;0.00;100.00
7966;BME280;4028;43.272;26.932;2023-01-30T04:39:33;99398.47;;;-0.34;100.00
7966;BME280;4028;43.272;26.932;2023-01-30T04:41:59;99446.00;;;-0.12;100.00
7966;BME280;4028;43.272;26.932;2023-01-30T04:44:24;99436.19;;;-0.05;100.00
7966;BME280;4028;43.272;26.932;2023-01-30T04:46:49;99444.03;;;-0.07;100.00
7966;BME280;4028;43.272;26.932;2023-01-30T04:49:15;99444.81;;;-0.05;100.00
7966;BME280;4028;43.272;26.932;2023-01-30T04:51:40;99445.03;;;-0.09;100.00
7966;BME280;4028;43.272;26.932;2023-01-30T04:54:06;99437.34;;;-0.12;100.00
7966;BME280;4028;43.272;26.932;2023-01-30T04:56:31;99447.13;;;-0.17;100.00
7966;BME280;4028;43.272;26.932;2023-01-30T04:58:57;99443.34;;;-0.10;100.00
7966;BME280;4028;43.272;26.932;2023-01-30T05:01:28;99445.94;;;-0.10;100.00
7966;BME280;4028;43.272;26.932;2023-01-30T05:03:54;99444.03;;;-0.07;100.00
7966;BME280;4028;43.272;26.932;2023-01-30T05:06:20;99443.91;;;-0.04;100.00
7966;BME280;4028;43.272;26.932;2023-01-30T05:08:50;99440.50;;;-0.06;100.00
7966;BME280;4028;43.272;26.932;2023-01-30T05:11:17;99422.03;;;-0.18;100.00
7966;BME280;4028;43.272;26.932;2023-01-30T05:13:43;99438.19;;;-0.12;100.00
7966;BME280;4028;43.272;26.932;2023-01-30T05:16:09;99444.88;;;-0.06;100.00
7966;BME280;4028;43.272;26.932;2023-01-30T05:18:35;99445.03;;;-0.09;100.00
7966;BME280;4028;43.272;26.932;2023-01-30T05:21:05;99453.75;;;-0.10;100.00
7966;BME280;4028;43.272;26.932;2023-01-30T05:23:31;99445.44;;;-0.18;100.00
7966;BME280;4028;43.272;26.932;2023-01-30T05:25:57;99440.16;;;-0.17;100.00
7966;BME280;4028;43.272;26.932;2023-01-30T05:28:22;99452.19;;;-0.14;100.00
7966;BME280;4028;43.272;26.932;2023-01-30T05:30:48;99451.19;;;-0.12;100.00
7966;BME280;4028;43.272;26.932;2023-01-30T05:33:13;99447.84;;;-0.14;100.00
7966;BME280;4028;43.272;26.932;2023-01-30T05:35:45;99425.97;;;-0.29;100.00
7966;BME280;4028;43.272;26.932;2023-01-30T05:38:11;99448.75;;;-0.15;100.00
7966;BME280;4028;43.272;26.932;2023-01-30T05:40:36;99436.59;;;-0.14;100.00
7966;BME280;4028;43.272;26.932;2023-01-30T05:43:02;99445.78;;;-0.07;100.00
7966;BME280;4028;43.272;26.932;2023-01-30T05:45:27;99453.47;;;-0.04;100.00
7966;BME280;4028;43.272;26.932;2023-01-30T05:47:52;99450.78;;;-0.03;100.00
7966;BME280;4028;43.272;26.932;2023-01-30T05:50:18;99457.38;;;0.05;100.00
7966;BME280;4028;43.272;26.932;2023-01-30T05:52:44;99456.00;;;-0.03;100.00
7966;BME280;4028;43.272;26.932;2023-01-30T05:55:09;99457.91;;;0.13;100.00
7966;BME280;4028;43.272;26.932;2023-01-30T05:57:34;99454.75;;;0.06;100.00
7966;BME280;4028;43.272;26.932;2023-01-30T06:00:00;99457.47;;;0.03;100.00
7966;BME280;4028;43.272;26.932;2023-01-30T06:02:25;99453.09;;;0.04;100.00
7966;BME280;4028;43.272;26.932;2023-01-30T06:04:51;99454.53;;;0.11;100.00
7966;BME280;4028;43.272;26.932;2023-01-30T06:07:16;99454.44;;;0.12;100.00
7966;BME280;4028;43.272;26.932;2023-01-30T06:09:42;99449.16;;;0.14;100.00
7966;BME280;4028;43.272;26.932;2023-01-30T06:12:07;99456.13;;;0.13;100.00
7966;BME280;4028;43.272;26.932;2023-01-30T06:14:33;99457.13;;;0.11;100.00
7966;BME280;4028;43.272;26.932;2023-01-30T06:16:58;99450.09;;;0.13;100.00
7966;BME280;4028;43.272;26.932;2023-01-30T06:19:24;99448.41;;;0.12;100.00
7966;BME280;4028;43.272;26.932;2023-01-30T06:21:49;99447.56;;;0.11;100.00
7966;BME280;4028;43.272;26.932;2023-01-30T06:24:15;99448.97;;;0.18;100.00
7966;BME280;4028;43.272;26.932;2023-01-30T06:26:40;99442.69;;;0.22;100.00
7966;BME280;4028;43.272;26.932;2023-01-30T06:29:06;99453.94;;;0.23;100.00
7966;BME280;4028;43.272;26.932;2023-01-30T06:31:31;99447.81;;;0.24;100.00
7966;BME280;4028;43.272;26.932;2023-01-30T06:33:56;99446.28;;;0.20;100.00
7966;BME280;4028;43.272;26.932;2023-01-30T06:36:22;99448.97;;;0.18;100.00
7966;BME280;4028;43.272;26.932;2023-01-30T06:38:47;99436.50;;;0.25;100.00
7966;BME280;4028;43.272;26.932;2023-01-30T06:41:13;99444.47;;;0.22;100.00
7966;BME280;4028;43.272;26.932;2023-01-30T06:43:40;99424.81;;;0.15;100.00
7966;BME280;4028;43.272;26.932;2023-01-30T06:46:06;99446.16;;;0.23;100.00
7966;BME280;4028;43.272;26.932;2023-01-30T06:48:32;99444.09;;;0.30;100.00
7966;BME280;4028;43.272;26.932;2023-01-30T06:50:57;99442.31;;;0.30;100.00
7966;BME280;4028;43.272;26.932;2023-01-30T06:53:23;99438.25;;;0.24;100.00
7966;BME280;4028;43.272;26.932;2023-01-30T06:55:58;99441.88;;;0.22;100.00
7966;BME280;4028;43.272;26.932;2023-01-30T06:58:23;99432.06;;;0.27;100.00
7966;BME280;4028;43.272;26.932;2023-01-30T07:00:49;99437.19;;;0.29;100.00
7966;BME280;4028;43.272;26.932;2023-01-30T07:03:16;99442.63;;;0.24;100.00
7966;BME280;4028;43.272;26.932;2023-01-30T07:05:43;99427.09;;;0.04;100.00
7966;BME280;4028;43.272;26.932;2023-01-30T07:08:09;99434.34;;;0.16;100.00
7966;BME280;4028;43.272;26.932;2023-01-30T07:10:35;99434.97;;;0.21;100.00
7966;BME280;4028;43.272;26.932;2023-01-30T07:13:01;99432.91;;;0.28;100.00
7966;BME280;4028;43.272;26.932;2023-01-30T07:15:27;99435.34;;;0.31;100.00
7966;BME280;4028;43.272;26.932;2023-01-30T07:17:53;99438.66;;;0.34;100.00
7966;BME280;4028;43.272;26.932;2023-01-30T07:20:18;99442.63;;;0.24;100.00
7966;BME280;4028;43.272;26.932;2023-01-30T07:22:50;99434.50;;;0.30;100.00
7966;BME280;4028;43.272;26.932;2023-01-30T07:25:17;99431.78;;;0.33;100.00
7966;BME280;4028;43.272;26.932;2023-01-30T07:27:42;99425.66;;;0.34;100.00
7966;BME280;4028;43.272;26.932;2023-01-30T07:30:08;99425.94;;;0.28;100.00
7966;BME280;4028;43.272;26.932;2023-01-30T07:32:34;99430.09;;;0.32;100.00
7966;BME280;4028;43.272;26.932;2023-01-30T07:34:59;99431.91;;;0.30;100.00
7966;BME280;4028;43.272;26.932;2023-01-30T07:37:24;99425.88;;;0.30;100.00
7966;BME280;4028;43.272;26.932;2023-01-30T07:39:50;99427.13;;;0.40;100.00
7966;BME280;4028;43.272;26.932;2023-01-30T07:42:15;99429.66;;;0.41;100.00
7966;BME280;4028;43.272;26.932;2023-01-30T07:44:41;99420.63;;;0.48;100.00
7966;BME280;4028;43.272;26.932;2023-01-30T07:47:06;99424.84;;;0.51;100.00
7966;BME280;4028;43.272;26.932;2023-01-30T07:49:32;99417.66;;;0.56;100.00
7966;BME280;4028;43.272;26.932;2023-01-30T07:51:57;99419.28;;;0.59;100.00
7966;BME280;4028;43.272;26.932;2023-01-30T07:54:23;99410.94;;;0.52;100.00
7966;BME280;4028;43.272;26.932;2023-01-30T07:56:48;99418.75;;;0.52;100.00
7966;BME280;4028;43.272;26.932;2023-01-30T07:59:14;99414.69;;;0.64;100.00
7966;BME280;4028;43.272;26.932;2023-01-30T08:01:39;99420.75;;;0.64;100.00
7966;BME280;4028;43.272;26.932;2023-01-30T08:04:05;99410.94;;;0.69;100.00
7966;BME280;4028;43.272;26.932;2023-01-30T08:06:30;99412.00;;;0.65;100.00
7966;BME280;4028;43.272;26.932;2023-01-30T08:08:56;99412.22;;;0.61;100.00
7966;BME280;4028;43.272;26.932;2023-01-30T08:11:21;99406.16;;;0.60;100.00
7966;BME280;4028;43.272;26.932;2023-01-30T08:13:47;99397.28;;;0.64;100.00
7966;BME280;4028;43.272;26.932;2023-01-30T08:16:13;99408.41;;;0.68;100.00
7966;BME280;4028;43.272;26.932;2023-01-30T08:18:38;99404.44;;;0.78;100.00
7966;BME280;4028;43.272;26.932;2023-01-30T08:21:05;99401.63;;;0.83;100.00
7966;BME280;4028;43.272;26.932;2023-01-30T08:23:31;99389.78;;;0.75;100.00
7966;BME280;4028;43.272;26.932;2023-01-30T08:25:58;99401.44;;;0.86;100.00
7966;BME280;4028;43.272;26.932;2023-01-30T08:28:25;99398.06;;;0.84;100.00
7966;BME280;4028;43.272;26.932;2023-01-30T08:30:51;99398.47;;;0.93;100.00
7966;BME280;4028;43.272;26.932;2023-01-30T08:33:18;99400.22;;;0.93;100.00
7966;BME280;4028;43.272;26.932;2023-01-30T08:35:43;99390.56;;;0.95;100.00
7966;BME280;4028;43.272;26.932;2023-01-30T08:38:09;99390.19;;;1.02;100.00
7966;BME280;4028;43.272;26.932;2023-01-30T08:40:35;99385.97;;;1.00;100.00
7966;BME280;4028;43.272;26.932;2023-01-30T08:43:01;99374.31;;;0.90;100.00
7966;BME280;4028;43.272;26.932;2023-01-30T08:45:27;99374.94;;;0.95;100.00
7966;BME280;4028;43.272;26.932;2023-01-30T08:47:52;99374.84;;;0.96;100.00
7966;BME280;4028;43.272;26.932;2023-01-30T08:50:18;99372.84;;;1.01;100.00
7966;BME280;4028;43.272;26.932;2023-01-30T08:52:44;99374.56;;;1.02;100.00
7966;BME280;4028;43.272;26.932;2023-01-30T08:55:09;99372.63;;;1.06;100.00
7966;BME280;4028;43.272;26.932;2023-01-30T08:57:35;99374.91;;;1.12;100.00
7966;BME280;4028;43.272;26.932;2023-01-30T09:00:02;99370.38;;;1.16;100.00
7966;BME280;4028;43.272;26.932;2023-01-30T09:02:27;99364.00;;;1.21;100.00
7966;BME280;4028;43.272;26.932;2023-01-30T09:04:53;99358.72;;;1.23;100.00
7966;BME280;4028;43.272;26.932;2023-01-30T09:07:18;99352.25;;;1.30;100.00
7966;BME280;4028;43.272;26.932;2023-01-30T09:09:44;99349.31;;;1.36;100.00
7966;BME280;4028;43.272;26.932;2023-01-30T09:12:09;99347.66;;;1.35;100.00
7966;BME280;4028;43.272;26.932;2023-01-30T09:14:35;99344.88;;;1.38;100.00
7966;BME280;4028;43.272;26.932;2023-01-30T09:17:00;99346.38;;;1.42;100.00
7966;BME280;4028;43.272;26.932;2023-01-30T09:19:27;99335.97;;;1.42;100.00
7966;BME280;4028;43.272;26.932;2023-01-30T09:21:53;99329.06;;;1.41;100.00
7966;BME280;4028;43.272;26.932;2023-01-30T09:24:20;99328.59;;;1.50;100.00
7966;BME280;4028;43.272;26.932;2023-01-30T09:26:51;99321.59;;;1.67;100.00
7966;BME280;4028;43.272;26.932;2023-01-30T09:29:17;99314.22;;;1.75;100.00
7966;BME280;4028;43.272;26.932;2023-01-30T09:31:42;99310.50;;;1.79;100.00
7966;BME280;4028;43.272;26.932;2023-01-30T09:34:08;99315.63;;;1.96;100.00
7966;BME280;4028;43.272;26.932;2023-01-30T09:36:33;99307.91;;;1.95;100.00
7966;BME280;4028;43.272;26.932;2023-01-30T09:38:59;99306.03;;;1.97;100.00
7966;BME280;4028;43.272;26.932;2023-01-30T09:48:06;99304.19;;;1.83;100.00
7966;BME280;4028;43.272;26.932;2023-01-30T09:55:30;99284.41;;;1.95;100.00
7966;BME280;4028;43.272;26.932;2023-01-30T09:57:58;99281.13;;;1.91;100.00
7966;BME280;4028;43.272;26.932;2023-01-30T10:00:33;99275.81;;;1.93;100.00
7966;BME280;4028;43.272;26.932;2023-01-30T10:05:43;99263.75;;;2.06;100.00
7966;BME280;4028;43.272;26.932;2023-01-30T10:25:17;99229.75;;;2.80;100.00
7966;BME280;4028;43.272;26.932;2023-01-30T10:30:51;99224.53;;;2.80;100.00
7966;BME280;4028;43.272;26.932;2023-01-30T10:33:39;99221.09;;;2.80;100.00
7966;BME280;4028;43.272;26.932;2023-01-30T10:36:22;99211.97;;;2.87;100.00
7966;BME280;4028;43.272;26.932;2023-01-30T10:38:50;99208.75;;;2.96;100.00
7966;BME280;4028;43.272;26.932;2023-01-30T10:43:55;99206.53;;;2.90;100.00
7966;BME280;4028;43.272;26.932;2023-01-30T10:49:16;99200.84;;;2.83;100.00
7966;BME280;4028;43.272;26.932;2023-01-30T10:51:57;99190.75;;;2.92;100.00
7966;BME280;4028;43.272;26.932;2023-01-30T10:54:34;99195.50;;;2.71;100.00
7966;BME280;4028;43.272;26.932;2023-01-30T11:00:03;99186.94;;;2.69;100.00
7966;BME280;4028;43.272;26.932;2023-01-30T11:05:36;99176.94;;;2.47;100.00
7966;BME280;4028;43.272;26.932;2023-01-30T11:08:11;99169.28;;;2.44;100.00
7966;BME280;4028;43.272;26.932;2023-01-30T11:10:42;99168.44;;;2.43;100.00
7966;BME280;4028;43.272;26.932;2023-01-30T11:13:22;99164.97;;;2.28;100.00
7966;BME280;4028;43.272;26.932;2023-01-30T11:15:53;99154.63;;;2.27;100.00
7966;BME280;4028;43.272;26.932;2023-01-30T11:18:20;99158.91;;;2.28;100.00
7966;BME280;4028;43.272;26.932;2023-01-30T11:25:56;99136.53;;;2.24;100.00
7966;BME280;4028;43.272;26.932;2023-01-30T11:28:24;99126.63;;;2.15;100.00
7966;BME280;4028;43.272;26.932;2023-01-30T11:30:56;99133.56;;;2.16;100.00
7966;BME280;4028;43.272;26.932;2023-01-30T11:33:31;99120.66;;;2.13;100.00
7966;BME280;4028;43.272;26.932;2023-01-30T11:35:59;99120.41;;;2.17;100.00
7966;BME280;4028;43.272;26.932;2023-01-30T11:38:36;99112.78;;;1.84;100.00
7966;BME280;4028;43.272;26.932;2023-01-30T11:41:19;99107.28;;;1.89;100.00
7966;BME280;4028;43.272;26.932;2023-01-30T11:43:46;99103.06;;;1.72;100.00
7966;BME280;4028;43.272;26.932;2023-01-30T11:46:16;99097.88;;;1.86;100.00
7966;BME280;4028;43.272;26.932;2023-01-30T11:51:14;99088.13;;;1.90;100.00
7966;BME280;4028;43.272;26.932;2023-01-30T11:53:44;99086.16;;;1.93;100.00
7966;BME280;4028;43.272;26.932;2023-01-30T11:56:15;99065.41;;;2.06;100.00
7966;BME280;4028;43.272;26.932;2023-01-30T11:58:42;99069.13;;;2.16;100.00
7966;BME280;4028;43.272;26.932;2023-01-30T12:01:15;99060.25;;;2.04;100.00
7966;BME280;4028;43.272;26.932;2023-01-30T12:03:49;99064.91;;;2.14;100.00
7966;BME280;4028;43.272;26.932;2023-01-30T12:06:29;99053.19;;;2.21;100.00
7966;BME280;4028;43.272;26.932;2023-01-30T12:08:56;99050.75;;;2.32;100.00
7966;BME280;4028;43.272;26.932;2023-01-30T12:11:41;99052.97;;;2.38;100.00
7966;BME280;4028;43.272;26.932;2023-01-30T12:17:02;99038.91;;;2.41;100.00
7966;BME280;4028;43.272;26.932;2023-01-30T12:19:53;99035.47;;;2.26;100.00
7966;BME280;4028;43.272;26.932;2023-01-30T12:28:33;99015.75;;;2.49;100.00
7966;BME280;4028;43.272;26.932;2023-01-30T12:31:24;99011.47;;;2.33;100.00
7966;BME280;4028;43.272;26.932;2023-01-30T12:33:51;99011.75;;;2.43;100.00
7966;BME280;4028;43.272;26.932;2023-01-30T12:36:44;99007.63;;;2.53;100.00
7966;BME280;4028;43.272;26.932;2023-01-30T13:04:08;98984.63;;;2.46;100.00
7966;BME280;4028;43.272;26.932;2023-01-30T13:12:37;98988.75;;;2.21;100.00
7966;BME280;4028;43.272;26.932;2023-01-30T13:18:12;98966.28;;;2.04;100.00
7966;BME280;4028;43.272;26.932;2023-01-30T13:20:53;98972.44;;;2.03;100.00
7966;BME280;4028;43.272;26.932;2023-01-30T13:26:01;98972.09;;;1.95;100.00
7966;BME280;4028;43.272;26.932;2023-01-30T13:28:42;98969.75;;;1.91;100.00
7966;BME280;4028;43.272;26.932;2023-01-30T13:31:18;98966.22;;;1.77;100.00
7966;BME280;4028;43.272;26.932;2023-01-30T13:33:47;98967.44;;;1.86;100.00
7966;BME280;4028;43.272;26.932;2023-01-30T13:36:23;98965.16;;;2.08;100.00
7966;BME280;4028;43.272;26.932;2023-01-30T13:39:00;98961.06;;;2.19;100.00
7966;BME280;4028;43.272;26.932;2023-01-30T13:41:36;98954.91;;;2.20;100.00
7966;BME280;4028;43.272;26.932;2023-01-30T13:44:28;98964.69;;;2.30;100.00
7966;BME280;4028;43.272;26.932;2023-01-30T13:47:18;98950.91;;;2.14;100.00
7966;BME280;4028;43.272;26.932;2023-01-30T13:53:00;98953.50;;;2.14;100.00
7966;BME280;4028;43.272;26.932;2023-01-30T13:55:50;98948.91;;;2.32;100.00
7966;BME280;4028;43.272;26.932;2023-01-30T14:01:09;98956.22;;;2.13;100.00
7966;BME280;4028;43.272;26.932;2023-01-30T14:03:36;98951.66;;;2.16;100.00
7966;BME280;4028;43.272;26.932;2023-01-30T14:06:33;98949.22;;;2.13;100.00
7966;BME280;4028;43.272;26.932;2023-01-30T14:09:16;98945.41;;;2.04;100.00
7966;BME280;4028;43.272;26.932;2023-01-30T14:11:48;98943.94;;;1.86;100.00
7966;BME280;4028;43.272;26.932;2023-01-30T14:14:33;98949.72;;;1.91;100.00
7966;BME280;4028;43.272;26.932;2023-01-30T14:17:14;98944.84;;;1.99;100.00
7966;BME280;4028;43.272;26.932;2023-01-30T14:19:55;98939.84;;;1.96;100.00
7966;BME280;4028;43.272;26.932;2023-01-30T14:30:44;98927.91;;;1.92;100.00
7966;BME280;4028;43.272;26.932;2023-01-30T14:38:33;98927.13;;;2.04;100.00
7966;BME280;4028;43.272;26.932;2023-01-30T14:45:57;98920.34;;;2.16;100.00
7966;BME280;4028;43.272;26.932;2023-01-30T14:48:50;98912.81;;;1.97;100.00
7966;BME280;4028;43.272;26.932;2023-01-30T15:02:00;98908.72;;;1.93;100.00
7966;BME280;4028;43.272;26.932;2023-01-30T15:07:14;98915.97;;;1.88;100.00
7966;BME280;4028;43.272;26.932;2023-01-30T15:09:48;98910.31;;;1.81;100.00
7966;BME280;4028;43.272;26.932;2023-01-30T15:29:38;98919.69;;;1.98;100.00
7966;BME280;4028;43.272;26.932;2023-01-30T15:32:23;98916.63;;;1.92;100.00
7966;BME280;4028;43.272;26.932;2023-01-30T15:35:35;98916.34;;;1.96;100.00
7966;BME280;4028;43.272;26.932;2023-01-30T15:43:10;98915.41;;;1.97;100.00
7966;BME280;4028;43.272;26.932;2023-01-30T15:48:38;98911.03;;;1.98;100.00
7966;BME280;4028;43.272;26.932;2023-01-30T15:51:07;98909.72;;;2.05;100.00
7966;BME280;4028;43.272;26.932;2023-01-30T15:53:40;98913.06;;;2.07;100.00
7966;BME280;4028;43.272;26.932;2023-01-30T15:56:08;98913.81;;;2.09;100.00
7966;BME280;4028;43.272;26.932;2023-01-30T15:58:44;98916.25;;;1.98;100.00
7966;BME280;4028;43.272;26.932;2023-01-30T16:01:15;98908.88;;;2.04;100.00
7966;BME280;4028;43.272;26.932;2023-01-30T16:03:42;98912.63;;;1.86;100.00
7966;BME280;4028;43.272;26.932;2023-01-30T16:06:22;98910.03;;;1.86;100.00
7966;BME280;4028;43.272;26.932;2023-01-30T16:09:01;98906.03;;;1.80;100.00
7966;BME280;4028;43.272;26.932;2023-01-30T16:11:39;98900.81;;;1.80;100.00
7966;BME280;4028;43.272;26.932;2023-01-30T16:14:10;98901.25;;;1.87;100.00
7966;BME280;4028;43.272;26.932;2023-01-30T16:16:36;98907.03;;;1.92;100.00
7966;BME280;4028;43.272;26.932;2023-01-30T16:19:04;98898.63;;;2.01;100.00
7966;BME280;4028;43.272;26.932;2023-01-30T16:21:32;98899.69;;;1.85;100.00
7966;BME280;4028;43.272;26.932;2023-01-30T16:24:14;98895.09;;;1.88;100.00
7966;BME280;4028;43.272;26.932;2023-01-30T16:26:44;98901.75;;;1.79;100.00
7966;BME280;4028;43.272;26.932;2023-01-30T16:29:16;98897.94;;;1.85;100.00
7966;BME280;4028;43.272;26.932;2023-01-30T16:31:44;98894.53;;;1.97;100.00
7966;BME280;4028;43.272;26.932;2023-01-30T16:36:54;98896.91;;;1.59;100.00
7966;BME280;4028;43.272;26.932;2023-01-30T16:39:34;98900.34;;;1.74;100.00